This is the latest recevied weather packets stored in our database for station/object KD4EED. If no packets are shown the sender has not sent any weather packets the latest 10 day(s).
| Time | Temp. | Humidity | Pressure | Rain* | Wind** | Luminosity | Snow |
|---|---|---|---|---|---|---|---|
| 1777741280 | 16.67° C | 81% | 1012.6 hPa | - | - | 120 W/m² | - |
| 1777740976 | 16.67° C | 81% | 1012.5 hPa | - | - | 111 W/m² | - |
| 1777740674 | 16.67° C | 81% | 1012.8 hPa | - | - | 94 W/m² | - |
| 1777740370 | 16.67° C | 81% | 1013 hPa | - | - | 77 W/m² | - |
| 1777740067 | 16.67° C | 81% | 1012.9 hPa | - | - | 75 W/m² | - |
| 1777739763 | 16.67° C | 81% | 1012.7 hPa | - | - | 82 W/m² | - |
| 1777739460 | 16.67° C | 82% | 1012.7 hPa | - | - | 87 W/m² | - |
| 1777739156 | 16.67° C | 82% | 1012.5 hPa | - | - | 85 W/m² | - |
| 1777738854 | 16.67° C | 82% | 1012.7 hPa | - | - | 79 W/m² | - |
| 1777738550 | 16.67° C | 83% | 1012.6 hPa | - | - | 75 W/m² | - |
| 1777738248 | 16.11° C | 83% | 1012.8 hPa | - | - | 73 W/m² | - |
| 1777737946 | 16.11° C | 83% | 1012.6 hPa | - | - | 75 W/m² | - |
| 1777737644 | 16.11° C | 84% | 1012.8 hPa | - | - | 68 W/m² | - |
| 1777737342 | 16.11° C | 84% | 1012.6 hPa | - | - | 59 W/m² | - |
| 1777737039 | 16.11° C | 84% | 1012.9 hPa | - | - | 51 W/m² | - |
| 1777736734 | 16.11° C | 84% | 1012.6 hPa | - | - | 52 W/m² | - |
| 1777736101 | 16.11° C | 85% | 1012.5 hPa | - | - | 52 W/m² | - |
| 1777735797 | 16.11° C | 84% | 1012.6 hPa | - | - | 44 W/m² | - |
| 1777735495 | 15.56° C | 85% | 1012.5 hPa | - | - | 50 W/m² | - |
| 1777735193 | 15.56° C | 85% | 1012.5 hPa | - | - | 44 W/m² | - |
| 1777734889 | 15.56° C | 86% | 1012.3 hPa | - | - | 44 W/m² | - |
| 1777734587 | 15.56° C | 86% | 1012.3 hPa | - | - | 38 W/m² | - |
| 1777734284 | 15.56° C | 86% | 1012.3 hPa | - | - | 32 W/m² | - |
| 1777733980 | 15.56° C | 86% | 1012.1 hPa | - | - | 31 W/m² | - |
| 1777733677 | 15.56° C | 87% | 1012.2 hPa | - | - | 36 W/m² | - |
* Rain since midnight (hover to see other rain measurements)
** Current wind speed in m/s (hover to see current wind gust speed)